Hauptseite
METAR-TAF:

METAR-TAF

Flughäfen :

Flughafen Çanakkale

Çanakkale, Türkei

Breite: 40-08N, Länge: 026-24E, Höhe: 3 m

Beobachtung

Neuester Wetterbericht von vor 1 Stunde und 18 Minuten, um 22:50 UTC
Wind 5 kt aus Ost
Temperatur 7°C
Luftfeuchtigkeit 87%
Luftdruck 1008 hPa
Sichtweite 10 km oder mehr
Leicht bewölkt in der Höhe von 3500 ft
Durchbrochene Bewölkung in der Höhe von 10000 ft

METAR: LTBH 112250Z 08005KT 9999 FEW035 BKN100 07/05 Q1008

Zeit: 03:08 (00:08 UTC)

Prognose

Neuester Wetterbericht von vor 1 Stunde und 28 Minuten, um 22:40 UTC
Gültige Prognose vom 12 um 00 UTC bis 12 um 09 UTC
Wind 2 kt aus unterschiedlichen Richtungen
Sichtweite 10 km oder mehr
Aufgelockert bewölkt in der Höhe von 3500 ft
Durchbrochene Bewölkung in der Höhe von 10000 ft
Zeitweise
vom 12 um 06 UTC bis 12 um 09 UTC
Regenschauer

TAF: LTBH 112240Z 1200/1209 VRB02KT 9999 SCT035 BKN100 TEMPO 1206/1209 -SHRA

Wetterbeobachtungen und Prognosen von mehr als 4000 Flughäfen (METAR und TAF Bericht).

Die verfügbaren Stationen werden durch gelbe und rote Markierungen auf der Karte dargestellt.

Führen Sie die Maus auf sie, um den Namen der Station zu sehen.

Darauf klicken, um die Beobachtung von Wetterbeobachtungen und Prognosen zu sehen.

Um die Karte zu ändern : klicken Sie auf den grünen Tasten mit einem schwarzen Kreuz Zum Vergrößern, auf den grünen Button mit einem Gedankenstrich zu verkleinern, oder auf die grünen Pfeile für benachbarte Karten.


METAR-TAF: